createdAt,value
2017-10-11T00:00:03.396Z,15.95
2017-10-11T00:00:29.521Z,15.97
2017-10-11T00:00:55.679Z,16.04
2017-10-11T00:01:21.798Z,16
2017-10-11T00:01:47.919Z,16.01
2017-10-11T00:02:14.046Z,15.98
2017-10-11T00:02:40.165Z,16.13
2017-10-11T00:03:06.288Z,15.98
2017-10-11T00:03:32.417Z,16.15
2017-10-11T00:03:58.539Z,16.1
2017-10-11T00:04:24.673Z,16
2017-10-11T00:04:50.798Z,15.98
2017-10-11T00:05:16.924Z,15.95
2017-10-11T00:05:43.042Z,16.02
2017-10-11T00:06:09.164Z,16.05
2017-10-11T00:06:35.292Z,16.02
2017-10-11T00:07:01.409Z,16.04
2017-10-11T00:07:27.545Z,15.98
2017-10-11T00:07:53.669Z,16
2017-10-11T00:08:19.786Z,16.09
2017-10-11T00:08:45.913Z,15.97
2017-10-11T00:09:12.033Z,16.02
2017-10-11T00:09:38.162Z,15.92
2017-10-11T00:10:04.286Z,15.95
2017-10-11T00:10:30.403Z,15.92
2017-10-11T00:10:56.524Z,15.97
2017-10-11T00:11:22.652Z,16.01
2017-10-11T00:11:48.777Z,16.08
2017-10-11T00:12:14.898Z,16.04
2017-10-11T00:12:41.023Z,16.04
2017-10-11T00:13:07.142Z,16.01
2017-10-11T00:13:33.269Z,16.05
2017-10-11T00:13:59.388Z,16.04
2017-10-11T00:14:25.509Z,16.05
2017-10-11T00:14:51.632Z,16.02
2017-10-11T00:15:17.753Z,16.04
2017-10-11T00:15:43.877Z,16.04
2017-10-11T00:16:10.010Z,16.04
2017-10-11T00:16:36.162Z,16.04
2017-10-11T00:17:02.328Z,16.02
2017-10-11T00:17:28.470Z,16.04
2017-10-11T00:17:54.614Z,15.95
2017-10-11T00:18:20.758Z,15.97
2017-10-11T00:18:46.908Z,15.92
2017-10-11T00:19:13.054Z,15.95
2017-10-11T00:19:39.203Z,16.02
2017-10-11T00:20:05.345Z,16.02
2017-10-11T00:20:31.500Z,16.01
2017-10-11T00:20:57.637Z,15.98
2017-10-11T00:21:23.781Z,15.98
2017-10-11T00:21:49.944Z,15.98
2017-10-11T00:22:16.115Z,15.98
2017-10-11T00:22:42.243Z,16.04
2017-10-11T00:23:08.388Z,16
2017-10-11T00:23:34.540Z,16.04
2017-10-11T00:24:00.687Z,16.01
2017-10-11T00:24:26.835Z,16.04
2017-10-11T00:24:52.975Z,16.09
2017-10-11T00:25:19.126Z,16.02
2017-10-11T00:25:45.278Z,16.02
2017-10-11T00:26:11.422Z,16.05
2017-10-11T00:26:37.566Z,15.97
2017-10-11T00:27:03.716Z,15.98
2017-10-11T00:27:29.857Z,16
2017-10-11T00:27:56.009Z,16.05
2017-10-11T00:28:22.183Z,15.95
2017-10-11T00:28:48.330Z,15.95
2017-10-11T00:29:14.484Z,15.97
2017-10-11T00:29:40.626Z,16.01
2017-10-11T00:30:06.769Z,16.02
2017-10-11T00:30:32.921Z,16.02
2017-10-11T00:30:59.063Z,16.01
2017-10-11T00:31:25.205Z,16.12
2017-10-11T00:31:51.352Z,16.1
2017-10-11T00:32:17.499Z,16.13
2017-10-11T00:32:43.645Z,16.09
2017-10-11T00:33:09.797Z,16.09
2017-10-11T00:33:35.938Z,16.16
2017-10-11T00:34:02.117Z,16.04
2017-10-11T00:34:28.268Z,16.01
2017-10-11T00:34:54.410Z,15.94
2017-10-11T00:35:20.566Z,15.98
2017-10-11T00:35:46.712Z,15.84
2017-10-11T00:36:12.858Z,15.88
2017-10-11T00:36:39.002Z,15.95
2017-10-11T00:37:05.145Z,15.94
2017-10-11T00:37:31.308Z,15.98
2017-10-11T00:37:57.442Z,16.02
2017-10-11T00:38:23.585Z,16.04
2017-10-11T00:38:49.732Z,16.09
2017-10-11T00:39:15.873Z,16.04
2017-10-11T00:39:42.025Z,16.13
2017-10-11T00:40:08.174Z,16
2017-10-11T00:40:34.324Z,16.04
2017-10-11T00:41:00.470Z,16
2017-10-11T00:41:26.620Z,16
2017-10-11T00:41:52.762Z,15.95
2017-10-11T00:42:18.906Z,16.04
2017-10-11T00:42:45.060Z,16.04
2017-10-11T00:43:11.206Z,16.01
2017-10-11T00:43:37.377Z,15.98
2017-10-11T00:44:03.525Z,15.86
2017-10-11T00:44:29.668Z,15.8
2017-10-11T00:44:55.847Z,15.84
2017-10-11T00:45:21.989Z,15.88
2017-10-11T00:45:48.131Z,15.86
2017-10-11T00:46:14.282Z,15.88
2017-10-11T00:46:40.430Z,15.84
2017-10-11T00:47:06.577Z,15.9
2017-10-11T00:47:32.724Z,15.86
2017-10-11T00:47:58.873Z,15.83
2017-10-11T00:48:25.017Z,15.91
2017-10-11T00:48:51.167Z,15.76
2017-10-11T00:49:17.310Z,15.8
2017-10-11T00:49:43.455Z,15.86
2017-10-11T00:50:09.608Z,15.82
2017-10-11T00:50:35.749Z,15.82
2017-10-11T00:51:01.895Z,15.84
2017-10-11T00:51:28.041Z,15.83
2017-10-11T00:51:54.213Z,15.8
2017-10-11T00:52:20.382Z,15.83
2017-10-11T00:52:46.528Z,15.8
2017-10-11T00:53:12.677Z,15.83
2017-10-11T00:53:38.847Z,15.84
2017-10-11T00:54:04.993Z,15.84
2017-10-11T00:54:31.145Z,15.94
2017-10-11T00:54:57.300Z,15.84
2017-10-11T00:55:23.434Z,15.97
2017-10-11T00:55:49.581Z,15.86
2017-10-11T00:56:15.725Z,15.84
2017-10-11T00:56:41.873Z,15.92
2017-10-11T00:57:08.021Z,15.82
2017-10-11T00:57:34.169Z,15.95
2017-10-11T00:58:00.328Z,15.88
2017-10-11T00:58:26.482Z,15.95
2017-10-11T00:58:52.637Z,15.95
2017-10-11T00:59:18.771Z,15.95
2017-10-11T00:59:44.921Z,15.92
2017-10-11T01:00:11.068Z,15.98
2017-10-11T01:00:37.219Z,16.01
2017-10-11T01:01:03.359Z,16.01
2017-10-11T01:01:29.499Z,16
2017-10-11T01:01:55.649Z,15.98
2017-10-11T01:02:21.795Z,15.98
2017-10-11T01:02:47.940Z,15.84
2017-10-11T01:03:14.085Z,15.98
2017-10-11T01:03:40.229Z,16.04
2017-10-11T01:04:06.375Z,16
2017-10-11T01:04:32.516Z,16
2017-10-11T01:04:58.659Z,15.97
2017-10-11T01:05:24.812Z,15.94
2017-10-11T01:05:50.960Z,15.94
2017-10-11T01:06:17.100Z,15.92
2017-10-11T01:06:43.243Z,15.86
2017-10-11T01:07:09.396Z,15.95
2017-10-11T01:07:35.546Z,15.9
2017-10-11T01:08:01.699Z,15.82
2017-10-11T01:08:27.846Z,15.84
2017-10-11T01:08:53.991Z,15.98
2017-10-11T01:09:20.141Z,15.98
2017-10-11T01:09:46.285Z,15.95
2017-10-11T01:10:12.428Z,15.95
2017-10-11T01:10:38.576Z,15.98
2017-10-11T01:11:04.726Z,15.94
2017-10-11T01:11:30.875Z,15.97
2017-10-11T01:11:57.016Z,15.86
2017-10-11T01:12:23.187Z,15.82
2017-10-11T01:12:49.325Z,15.91
2017-10-11T01:13:15.479Z,15.9
2017-10-11T01:13:41.622Z,15.86
2017-10-11T01:14:07.767Z,15.86
2017-10-11T01:14:33.946Z,15.9
2017-10-11T01:15:00.088Z,15.79
2017-10-11T01:15:26.226Z,15.72
2017-10-11T01:15:52.380Z,15.82
2017-10-11T01:16:18.525Z,15.82
2017-10-11T01:16:44.672Z,15.77
2017-10-11T01:17:10.809Z,15.94
2017-10-11T01:17:36.955Z,15.86
2017-10-11T01:18:03.106Z,15.9
2017-10-11T01:18:29.281Z,15.8
2017-10-11T01:18:55.456Z,15.86
2017-10-11T01:19:21.601Z,15.86
2017-10-11T01:19:47.760Z,15.86
2017-10-11T01:20:13.898Z,15.84
2017-10-11T01:20:40.041Z,15.72
2017-10-11T01:21:06.191Z,15.75
2017-10-11T01:21:32.336Z,15.68
2017-10-11T01:21:58.489Z,15.82
2017-10-11T01:22:24.655Z,15.77
2017-10-11T01:22:50.794Z,15.72
2017-10-11T01:23:16.969Z,15.64
2017-10-11T01:23:43.116Z,15.64
2017-10-11T01:24:09.263Z,15.68
2017-10-11T01:24:35.409Z,15.67
2017-10-11T01:25:01.559Z,15.67
2017-10-11T01:25:27.709Z,15.73
2017-10-11T01:25:53.851Z,15.68
2017-10-11T01:26:19.995Z,15.75
2017-10-11T01:26:46.142Z,15.73
2017-10-11T01:27:12.293Z,15.72
2017-10-11T01:27:38.457Z,15.72
2017-10-11T01:28:04.609Z,15.72
2017-10-11T01:28:30.758Z,15.73
2017-10-11T01:28:56.900Z,15.73
2017-10-11T01:29:23.044Z,15.8
2017-10-11T01:29:49.193Z,15.72
2017-10-11T01:30:15.344Z,15.73
2017-10-11T01:30:41.486Z,15.7
2017-10-11T01:31:07.635Z,15.75
2017-10-11T01:31:33.777Z,15.64
2017-10-11T01:31:59.931Z,15.61
2017-10-11T01:32:26.073Z,15.58
2017-10-11T01:32:52.215Z,15.52
2017-10-11T01:33:18.364Z,15.65
2017-10-11T01:33:44.539Z,15.65
2017-10-11T01:34:10.683Z,15.62
2017-10-11T01:34:36.830Z,15.65
2017-10-11T01:35:03.010Z,15.65
2017-10-11T01:35:29.157Z,15.61
2017-10-11T01:35:55.306Z,15.59
2017-10-11T01:36:21.454Z,15.55
2017-10-11T01:36:47.595Z,15.54
2017-10-11T01:37:13.740Z,15.49
2017-10-11T01:37:39.882Z,15.52
2017-10-11T01:38:06.025Z,15.57
2017-10-11T01:38:32.183Z,15.49
2017-10-11T01:38:58.329Z,15.51
2017-10-11T01:39:24.480Z,15.57
2017-10-11T01:39:50.626Z,15.55
2017-10-11T01:40:16.772Z,15.52
2017-10-11T01:40:42.911Z,15.55
2017-10-11T01:41:09.061Z,15.58
2017-10-11T01:41:35.197Z,15.55
2017-10-11T01:42:01.349Z,15.51
2017-10-11T01:42:27.501Z,15.49
2017-10-11T01:42:53.647Z,15.49
2017-10-11T01:43:19.794Z,15.52
2017-10-11T01:43:45.941Z,15.52
2017-10-11T01:44:12.084Z,15.52
2017-10-11T01:44:38.235Z,15.54
2017-10-11T01:45:04.408Z,15.57
2017-10-11T01:45:30.542Z,15.46
2017-10-11T01:45:56.695Z,15.57
2017-10-11T01:46:22.843Z,15.52
2017-10-11T01:46:48.987Z,15.58
2017-10-11T01:47:15.134Z,15.52
2017-10-11T01:47:41.275Z,15.52
2017-10-11T01:48:07.418Z,15.55
2017-10-11T01:48:33.562Z,15.52
2017-10-11T01:48:59.712Z,15.52
2017-10-11T01:49:25.888Z,15.57
2017-10-11T01:49:52.032Z,15.57
2017-10-11T01:50:18.182Z,15.58
2017-10-11T01:50:44.320Z,15.59
2017-10-11T01:51:10.473Z,15.59
2017-10-11T01:51:36.641Z,15.62
2017-10-11T01:52:02.813Z,15.59
2017-10-11T01:52:28.964Z,15.52
2017-10-11T01:52:55.111Z,15.52
2017-10-11T01:53:21.272Z,15.47
2017-10-11T01:53:47.425Z,15.49
2017-10-11T01:54:13.565Z,15.51
2017-10-11T01:54:39.717Z,15.59
2017-10-11T01:55:05.862Z,15.52
2017-10-11T01:55:32.009Z,15.55
2017-10-11T01:55:58.152Z,15.55
2017-10-11T01:56:24.299Z,15.55
2017-10-11T01:56:50.445Z,15.55
2017-10-11T01:57:16.604Z,15.57
2017-10-11T01:57:42.758Z,15.55
2017-10-11T01:58:08.894Z,15.57
2017-10-11T01:58:35.044Z,15.57
2017-10-11T01:59:01.184Z,15.65
2017-10-11T01:59:27.332Z,15.57
2017-10-11T01:59:53.482Z,15.62
2017-10-11T02:00:19.636Z,15.62
2017-10-11T02:00:45.772Z,15.64
2017-10-11T02:01:11.920Z,15.52
2017-10-11T02:01:38.067Z,15.59
2017-10-11T02:02:04.208Z,15.55
2017-10-11T02:02:30.354Z,15.52
2017-10-11T02:02:56.508Z,15.51
2017-10-11T02:03:22.652Z,15.51
2017-10-11T02:03:48.799Z,15.59
2017-10-11T02:04:14.950Z,15.59
2017-10-11T02:04:41.091Z,15.55
2017-10-11T02:05:07.238Z,15.65
2017-10-11T02:05:33.381Z,15.62
2017-10-11T02:05:59.535Z,15.58
2017-10-11T02:06:25.674Z,15.62
2017-10-11T02:06:51.818Z,15.58
2017-10-11T02:07:17.965Z,15.54
2017-10-11T02:07:44.110Z,15.62
2017-10-11T02:08:10.257Z,15.62
2017-10-11T02:08:36.395Z,15.65
2017-10-11T02:09:02.548Z,15.67
2017-10-11T02:09:28.703Z,15.65
2017-10-11T02:09:54.872Z,15.62
2017-10-11T02:10:21.016Z,15.61
2017-10-11T02:10:47.166Z,15.57
2017-10-11T02:11:13.319Z,15.61
2017-10-11T02:11:39.487Z,15.54
2017-10-11T02:12:05.640Z,15.61
2017-10-11T02:12:31.780Z,15.65
2017-10-11T02:12:57.926Z,15.55
2017-10-11T02:13:24.075Z,15.59
2017-10-11T02:13:50.224Z,15.59
2017-10-11T02:14:16.376Z,15.65
2017-10-11T02:14:42.514Z,15.58
2017-10-11T02:15:08.651Z,15.64
2017-10-11T02:15:34.803Z,15.62
2017-10-11T02:16:00.947Z,15.61
2017-10-11T02:16:27.130Z,15.62
2017-10-11T02:16:53.275Z,15.68
2017-10-11T02:17:19.413Z,15.76
2017-10-11T02:17:45.566Z,15.7
2017-10-11T02:18:11.706Z,15.73
2017-10-11T02:18:37.860Z,15.68
2017-10-11T02:19:04.000Z,15.67
2017-10-11T02:19:30.149Z,15.62
2017-10-11T02:19:56.293Z,15.65
2017-10-11T02:20:22.441Z,15.73
2017-10-11T02:20:48.589Z,15.75
2017-10-11T02:21:14.732Z,15.67
2017-10-11T02:21:40.876Z,15.65
2017-10-11T02:22:07.028Z,15.73
2017-10-11T02:22:33.168Z,15.72
2017-10-11T02:22:59.308Z,15.73
2017-10-11T02:23:25.457Z,15.62
2017-10-11T02:23:51.605Z,15.61
2017-10-11T02:24:17.756Z,15.58
2017-10-11T02:24:43.905Z,15.62
2017-10-11T02:25:10.055Z,15.65
2017-10-11T02:25:36.194Z,15.72
2017-10-11T02:26:02.345Z,15.72
2017-10-11T02:26:28.510Z,15.75
2017-10-11T02:26:54.657Z,15.75
2017-10-11T02:27:20.831Z,15.72
2017-10-11T02:27:46.971Z,15.73
2017-10-11T02:28:13.127Z,15.65
2017-10-11T02:28:39.280Z,15.73
2017-10-11T02:29:05.420Z,15.75
2017-10-11T02:29:31.596Z,15.75
2017-10-11T02:29:57.752Z,15.75
2017-10-11T02:30:23.920Z,15.68
2017-10-11T02:30:50.283Z,15.68
2017-10-11T02:31:16.424Z,15.75
2017-10-11T02:31:42.593Z,15.72
2017-10-11T02:32:08.755Z,15.75
2017-10-11T02:32:34.925Z,15.7
2017-10-11T02:33:01.081Z,15.73
2017-10-11T02:33:27.224Z,15.68
2017-10-11T02:33:53.373Z,15.75
2017-10-11T02:34:19.519Z,15.76
2017-10-11T02:34:45.673Z,15.72
2017-10-11T02:35:11.814Z,15.68
2017-10-11T02:35:37.965Z,15.61
2017-10-11T02:36:04.110Z,15.65
2017-10-11T02:36:30.259Z,15.62
2017-10-11T02:36:56.431Z,15.52
2017-10-11T02:37:22.581Z,15.58
2017-10-11T02:37:48.726Z,15.65
2017-10-11T02:38:14.871Z,15.68
2017-10-11T02:38:41.015Z,15.54
2017-10-11T02:39:07.177Z,15.51
2017-10-11T02:39:33.307Z,15.55
2017-10-11T02:39:59.457Z,15.44
2017-10-11T02:40:25.605Z,15.46
2017-10-11T02:40:51.747Z,15.54
2017-10-11T02:41:17.897Z,15.57
2017-10-11T02:41:44.037Z,15.43
2017-10-11T02:42:10.188Z,15.49
2017-10-11T02:42:36.331Z,15.44
2017-10-11T02:43:02.482Z,15.54
2017-10-11T02:43:28.624Z,15.42
2017-10-11T02:43:54.774Z,15.43
2017-10-11T02:44:20.921Z,15.4
2017-10-11T02:44:47.063Z,15.43
2017-10-11T02:45:13.209Z,15.33
2017-10-11T02:45:39.358Z,15.4
2017-10-11T02:46:05.507Z,15.44
2017-10-11T02:46:31.641Z,15.42
2017-10-11T02:46:57.794Z,15.43
2017-10-11T02:47:23.937Z,15.33
2017-10-11T02:47:50.088Z,15.39
2017-10-11T02:48:16.232Z,15.36
2017-10-11T02:48:42.378Z,15.37
2017-10-11T02:49:08.527Z,15.37
2017-10-11T02:49:34.677Z,15.33
2017-10-11T02:50:00.816Z,15.4
2017-10-11T02:50:26.983Z,15.42
2017-10-11T02:50:53.161Z,15.47
2017-10-11T02:51:19.311Z,15.36
2017-10-11T02:51:45.452Z,15.43
2017-10-11T02:52:11.595Z,15.44
2017-10-11T02:52:37.801Z,15.39
2017-10-11T02:53:03.940Z,15.42
2017-10-11T02:53:30.088Z,15.44
2017-10-11T02:53:56.228Z,15.42
2017-10-11T02:54:22.379Z,15.36
2017-10-11T02:54:48.531Z,15.37
2017-10-11T02:55:14.672Z,15.4
2017-10-11T02:55:40.817Z,15.39
2017-10-11T02:56:06.975Z,15.36
2017-10-11T02:56:33.110Z,15.43
2017-10-11T02:56:59.259Z,15.39
2017-10-11T02:57:25.435Z,15.43
2017-10-11T02:57:51.607Z,15.47
2017-10-11T02:58:17.758Z,15.35
2017-10-11T02:58:43.905Z,15.47
2017-10-11T02:59:10.056Z,15.4
2017-10-11T02:59:36.193Z,15.39
2017-10-11T03:00:02.341Z,15.29
2017-10-11T03:00:28.492Z,15.37
2017-10-11T03:00:54.643Z,15.25
2017-10-11T03:01:20.781Z,15.33
2017-10-11T03:01:46.929Z,15.39
2017-10-11T03:02:13.073Z,15.27
2017-10-11T03:02:39.229Z,15.29
2017-10-11T03:03:05.371Z,15.31
2017-10-11T03:03:31.535Z,15.36
2017-10-11T03:03:57.680Z,15.39
2017-10-11T03:04:23.828Z,15.33
2017-10-11T03:04:49.969Z,15.29
2017-10-11T03:05:16.118Z,15.33
2017-10-11T03:05:42.273Z,15.28
2017-10-11T03:06:08.413Z,15.29
2017-10-11T03:06:34.565Z,15.29
2017-10-11T03:07:00.715Z,15.31
2017-10-11T03:07:26.859Z,15.33
2017-10-11T03:07:52.997Z,15.36
2017-10-11T03:08:19.174Z,15.31
2017-10-11T03:08:45.320Z,15.4
2017-10-11T03:09:11.465Z,15.42
2017-10-11T03:09:37.612Z,15.42
2017-10-11T03:10:03.758Z,15.37
2017-10-11T03:10:29.904Z,15.39
2017-10-11T03:10:56.046Z,15.29
2017-10-11T03:11:22.199Z,15.27
2017-10-11T03:11:48.340Z,15.33
2017-10-11T03:12:14.496Z,15.33
2017-10-11T03:12:40.658Z,15.43
2017-10-11T03:13:06.808Z,15.4
2017-10-11T03:13:32.953Z,15.42
2017-10-11T03:13:59.101Z,15.42
2017-10-11T03:14:25.240Z,15.4
2017-10-11T03:14:51.392Z,15.37
2017-10-11T03:15:17.536Z,15.46
2017-10-11T03:15:43.679Z,15.44
2017-10-11T03:16:09.825Z,15.47
2017-10-11T03:16:35.977Z,15.46
2017-10-11T03:17:02.119Z,15.43
2017-10-11T03:17:28.261Z,15.42
2017-10-11T03:17:54.408Z,15.47
2017-10-11T03:18:20.588Z,15.47
2017-10-11T03:18:46.729Z,15.47
2017-10-11T03:19:12.875Z,15.44
2017-10-11T03:19:39.032Z,15.47
2017-10-11T03:20:05.174Z,15.44
2017-10-11T03:20:31.325Z,15.44
2017-10-11T03:20:57.494Z,15.46
2017-10-11T03:21:23.645Z,15.33
2017-10-11T03:21:49.787Z,15.43
2017-10-11T03:22:15.941Z,15.43
2017-10-11T03:22:42.090Z,15.54
2017-10-11T03:23:08.235Z,15.44
2017-10-11T03:23:34.382Z,15.51
2017-10-11T03:24:00.528Z,15.47
2017-10-11T03:24:26.705Z,15.46
2017-10-11T03:24:52.845Z,15.46
2017-10-11T03:25:18.988Z,15.43
2017-10-11T03:25:45.141Z,15.43
2017-10-11T03:26:11.282Z,15.49
2017-10-11T03:26:37.457Z,15.47
2017-10-11T03:27:03.625Z,15.44
2017-10-11T03:27:29.767Z,15.47
2017-10-11T03:27:55.908Z,15.44
2017-10-11T03:28:22.054Z,15.43
2017-10-11T03:28:48.201Z,15.43
2017-10-11T03:29:14.348Z,15.43
2017-10-11T03:29:40.488Z,15.52
2017-10-11T03:30:06.648Z,15.44
2017-10-11T03:30:32.789Z,15.44
2017-10-11T03:30:58.933Z,15.44
2017-10-11T03:31:25.099Z,15.49
2017-10-11T03:31:51.246Z,15.44
2017-10-11T03:32:17.399Z,15.51
2017-10-11T03:32:43.539Z,15.55
2017-10-11T03:33:09.681Z,15.47
2017-10-11T03:33:35.827Z,15.47
2017-10-11T03:34:01.975Z,15.54
2017-10-11T03:34:28.119Z,15.52
2017-10-11T03:34:54.267Z,15.46
2017-10-11T03:35:20.415Z,15.52
2017-10-11T03:35:46.559Z,15.42
2017-10-11T03:36:12.708Z,15.47
2017-10-11T03:36:38.856Z,15.47
2017-10-11T03:37:04.996Z,15.58
2017-10-11T03:37:31.142Z,15.4
2017-10-11T03:37:57.287Z,15.44
2017-10-11T03:38:23.432Z,15.51
2017-10-11T03:38:49.581Z,15.54
2017-10-11T03:39:15.749Z,15.46
2017-10-11T03:39:41.902Z,15.52
2017-10-11T03:40:08.042Z,15.43
2017-10-11T03:40:34.193Z,15.52
2017-10-11T03:41:00.341Z,15.47
2017-10-11T03:41:26.492Z,15.49
2017-10-11T03:41:52.641Z,15.54
2017-10-11T03:42:18.801Z,15.51
2017-10-11T03:42:44.953Z,15.4
2017-10-11T03:43:11.094Z,15.51
2017-10-11T03:43:37.245Z,15.55
2017-10-11T03:44:03.419Z,15.49
2017-10-11T03:44:29.558Z,15.46
2017-10-11T03:44:55.685Z,15.47
2017-10-11T03:45:21.833Z,15.46
2017-10-11T03:45:47.980Z,15.49
2017-10-11T03:46:14.122Z,15.51
2017-10-11T03:46:40.271Z,15.44
2017-10-11T03:47:06.417Z,15.52
2017-10-11T03:47:32.564Z,15.57
2017-10-11T03:47:58.707Z,15.55
2017-10-11T03:48:24.886Z,15.49
2017-10-11T03:48:51.026Z,15.58
2017-10-11T03:49:17.177Z,15.58
2017-10-11T03:49:43.319Z,15.52
2017-10-11T03:50:09.466Z,15.52
2017-10-11T03:50:35.613Z,15.57
2017-10-11T03:51:01.763Z,15.57
2017-10-11T03:51:27.915Z,15.55
2017-10-11T03:51:54.054Z,15.52
2017-10-11T03:52:20.201Z,15.59
2017-10-11T03:52:46.348Z,15.51
2017-10-11T03:53:12.491Z,15.55
2017-10-11T03:53:38.639Z,15.55
2017-10-11T03:54:04.780Z,15.65
2017-10-11T03:54:30.932Z,15.58
2017-10-11T03:54:57.083Z,15.58
2017-10-11T03:55:23.223Z,15.57
2017-10-11T03:55:49.374Z,15.52
2017-10-11T03:56:15.514Z,15.52
2017-10-11T03:56:41.660Z,15.52
2017-10-11T03:57:07.806Z,15.59
2017-10-11T03:57:33.953Z,15.52
2017-10-11T03:58:00.098Z,15.49
2017-10-11T03:58:26.241Z,15.57
2017-10-11T03:58:52.392Z,15.58
2017-10-11T03:59:18.535Z,15.64
2017-10-11T03:59:44.688Z,15.61
2017-10-11T04:00:10.828Z,15.62
2017-10-11T04:00:36.980Z,15.58
2017-10-11T04:01:03.131Z,15.57
2017-10-11T04:01:29.266Z,15.62
2017-10-11T04:01:55.416Z,15.61
2017-10-11T04:02:21.564Z,15.67
2017-10-11T04:02:47.743Z,15.72
2017-10-11T04:03:13.875Z,15.68
2017-10-11T04:03:40.028Z,15.67
2017-10-11T04:04:06.171Z,15.64
2017-10-11T04:04:32.327Z,15.67
2017-10-11T04:04:58.471Z,15.64
2017-10-11T04:05:24.645Z,15.64
2017-10-11T04:05:50.789Z,15.68
2017-10-11T04:06:16.934Z,15.65
2017-10-11T04:06:43.077Z,15.72
2017-10-11T04:07:09.223Z,15.64
2017-10-11T04:07:35.368Z,15.61
2017-10-11T04:08:01.519Z,15.59
2017-10-11T04:08:27.662Z,15.52
2017-10-11T04:08:53.808Z,15.55
2017-10-11T04:09:19.961Z,15.57
2017-10-11T04:09:46.107Z,15.51
2017-10-11T04:10:12.252Z,15.51
2017-10-11T04:10:38.404Z,15.52
2017-10-11T04:11:04.545Z,15.4
2017-10-11T04:11:30.688Z,15.52
2017-10-11T04:11:56.836Z,15.51
2017-10-11T04:12:22.979Z,15.44
2017-10-11T04:12:49.134Z,15.51
2017-10-11T04:13:15.266Z,15.4
2017-10-11T04:13:41.418Z,15.43
2017-10-11T04:14:07.560Z,15.46
2017-10-11T04:14:33.708Z,15.46
2017-10-11T04:14:59.854Z,15.43
2017-10-11T04:15:25.996Z,15.33
2017-10-11T04:15:52.145Z,15.4
2017-10-11T04:16:18.319Z,15.47
2017-10-11T04:16:44.463Z,15.46
2017-10-11T04:17:10.655Z,15.46
2017-10-11T04:17:36.805Z,15.43
2017-10-11T04:18:02.950Z,15.37
2017-10-11T04:18:29.099Z,15.46
2017-10-11T04:18:55.241Z,15.46
2017-10-11T04:19:21.387Z,15.46
2017-10-11T04:19:47.553Z,15.36
2017-10-11T04:20:13.706Z,15.42
2017-10-11T04:20:39.845Z,15.46
2017-10-11T04:21:05.991Z,15.43
2017-10-11T04:21:32.143Z,15.43
2017-10-11T04:21:58.286Z,15.4
2017-10-11T04:22:24.434Z,15.36
2017-10-11T04:22:50.578Z,15.33
2017-10-11T04:23:16.733Z,15.43
2017-10-11T04:23:42.870Z,15.44
2017-10-11T04:24:09.023Z,15.43
2017-10-11T04:24:35.166Z,15.4
2017-10-11T04:25:01.318Z,15.46
2017-10-11T04:25:27.463Z,15.37
2017-10-11T04:25:53.608Z,15.49
2017-10-11T04:26:19.763Z,15.52
2017-10-11T04:26:45.893Z,15.49
2017-10-11T04:27:12.042Z,15.43
2017-10-11T04:27:38.215Z,15.46
2017-10-11T04:28:04.360Z,15.46
2017-10-11T04:28:30.519Z,15.47
2017-10-11T04:28:56.662Z,15.46
2017-10-11T04:29:22.803Z,15.46
2017-10-11T04:29:48.942Z,15.47
2017-10-11T04:30:15.086Z,15.42
2017-10-11T04:30:41.235Z,15.42
2017-10-11T04:31:07.379Z,15.43
2017-10-11T04:31:33.529Z,15.46
2017-10-11T04:31:59.725Z,15.46
2017-10-11T04:32:25.871Z,15.44
2017-10-11T04:32:52.016Z,15.42
2017-10-11T04:33:18.166Z,15.39
2017-10-11T04:33:44.311Z,15.44
2017-10-11T04:34:10.457Z,15.39
2017-10-11T04:34:36.610Z,15.39
2017-10-11T04:35:02.755Z,15.27
2017-10-11T04:35:28.897Z,15.29
2017-10-11T04:35:55.040Z,15.28
2017-10-11T04:36:21.188Z,15.33
2017-10-11T04:36:47.332Z,15.27
2017-10-11T04:37:13.504Z,15.39
2017-10-11T04:37:39.646Z,15.42
2017-10-11T04:38:05.794Z,15.39
2017-10-11T04:38:31.940Z,15.43
2017-10-11T04:38:58.086Z,15.33
2017-10-11T04:39:24.237Z,15.4
2017-10-11T04:39:50.374Z,15.44
2017-10-11T04:40:16.531Z,15.47
2017-10-11T04:40:42.674Z,15.43
2017-10-11T04:41:08.824Z,15.39
2017-10-11T04:41:34.965Z,15.42
2017-10-11T04:42:01.110Z,15.44
2017-10-11T04:42:27.261Z,15.44
2017-10-11T04:42:53.402Z,15.43
2017-10-11T04:43:19.550Z,15.43
2017-10-11T04:43:45.694Z,15.47
2017-10-11T04:44:11.858Z,15.46
2017-10-11T04:44:38.011Z,15.47
2017-10-11T04:45:04.178Z,15.44
2017-10-11T04:45:30.318Z,15.42
2017-10-11T04:45:56.471Z,15.43
2017-10-11T04:46:22.610Z,15.49
2017-10-11T04:46:48.760Z,15.46
2017-10-11T04:47:14.914Z,15.39
2017-10-11T04:47:41.062Z,15.44
2017-10-11T04:48:07.206Z,15.42
2017-10-11T04:48:33.356Z,15.47
2017-10-11T04:48:59.494Z,15.44
2017-10-11T04:49:25.638Z,15.42
2017-10-11T04:49:51.784Z,15.44
2017-10-11T04:50:17.927Z,15.43
2017-10-11T04:50:44.077Z,15.37
2017-10-11T04:51:10.222Z,15.43
2017-10-11T04:51:36.370Z,15.47
2017-10-11T04:52:02.517Z,15.44
2017-10-11T04:52:28.663Z,15.52
2017-10-11T04:52:54.806Z,15.46
2017-10-11T04:53:20.965Z,15.4
2017-10-11T04:53:47.106Z,15.33
2017-10-11T04:54:13.253Z,15.43
2017-10-11T04:54:39.393Z,15.43
2017-10-11T04:55:05.533Z,15.44
2017-10-11T04:55:31.685Z,15.46
2017-10-11T04:55:57.833Z,15.54
2017-10-11T04:56:23.978Z,15.4
2017-10-11T04:56:50.118Z,15.54
2017-10-11T04:57:16.271Z,15.52
2017-10-11T04:57:42.418Z,15.42
2017-10-11T04:58:08.562Z,15.37
2017-10-11T04:58:34.713Z,15.49
2017-10-11T04:59:00.851Z,15.52
2017-10-11T04:59:26.996Z,15.54
2017-10-11T04:59:53.145Z,15.52
2017-10-11T05:00:19.289Z,15.59
2017-10-11T05:00:45.435Z,15.51
2017-10-11T05:01:11.582Z,15.55
2017-10-11T05:01:37.732Z,15.55
2017-10-11T05:02:03.880Z,15.51
2017-10-11T05:02:30.030Z,15.4
2017-10-11T05:02:56.205Z,15.43
2017-10-11T05:03:22.349Z,15.42
2017-10-11T05:03:48.499Z,15.46
2017-10-11T05:04:14.638Z,15.47
2017-10-11T05:04:40.788Z,15.39
2017-10-11T05:05:06.931Z,15.47
2017-10-11T05:05:33.074Z,15.36
2017-10-11T05:05:59.249Z,15.33
2017-10-11T05:06:25.386Z,15.46
2017-10-11T05:06:51.539Z,15.33
2017-10-11T05:07:17.684Z,15.42
2017-10-11T05:07:43.824Z,15.4
2017-10-11T05:08:09.967Z,15.39
2017-10-11T05:08:36.116Z,15.44
2017-10-11T05:09:02.263Z,15.36
2017-10-11T05:09:28.411Z,15.47
2017-10-11T05:09:54.550Z,15.33
2017-10-11T05:10:20.728Z,15.33
2017-10-11T05:10:46.872Z,15.36
2017-10-11T05:11:13.016Z,15.37
2017-10-11T05:11:39.161Z,15.43
2017-10-11T05:12:05.307Z,15.46
2017-10-11T05:12:31.452Z,15.36
2017-10-11T05:12:57.606Z,15.43
2017-10-11T05:13:23.744Z,15.31
2017-10-11T05:13:49.891Z,15.4
2017-10-11T05:14:16.069Z,15.39
2017-10-11T05:14:42.210Z,15.42
2017-10-11T05:15:08.359Z,15.4
2017-10-11T05:15:34.505Z,15.4
2017-10-11T05:16:00.656Z,15.39
2017-10-11T05:16:26.803Z,15.43
2017-10-11T05:16:52.948Z,15.36
2017-10-11T05:17:19.096Z,15.39
2017-10-11T05:17:45.244Z,15.46
2017-10-11T05:18:11.392Z,15.33
2017-10-11T05:18:37.542Z,15.36
2017-10-11T05:19:03.681Z,15.31
2017-10-11T05:19:29.826Z,15.27
2017-10-11T05:19:55.975Z,15.29
2017-10-11T05:20:22.150Z,15.31
2017-10-11T05:20:48.291Z,15.36
2017-10-11T05:21:14.435Z,15.4
2017-10-11T05:21:40.585Z,15.33
2017-10-11T05:22:06.735Z,15.43
2017-10-11T05:22:32.900Z,15.4
2017-10-11T05:22:59.050Z,15.33
2017-10-11T05:23:25.188Z,15.36
2017-10-11T05:23:51.332Z,15.42
2017-10-11T05:24:17.484Z,15.28
2017-10-11T05:24:43.626Z,15.25
2017-10-11T05:25:09.772Z,15.29
2017-10-11T05:25:35.919Z,15.29
2017-10-11T05:26:02.093Z,15.29
2017-10-11T05:26:28.238Z,15.28
2017-10-11T05:26:54.383Z,15.28
2017-10-11T05:27:20.532Z,15.33
2017-10-11T05:27:46.673Z,15.36
2017-10-11T05:28:12.818Z,15.29
2017-10-11T05:28:38.968Z,15.28
2017-10-11T05:29:05.117Z,15.29
2017-10-11T05:29:31.261Z,15.31
2017-10-11T05:29:57.407Z,15.28
2017-10-11T05:30:23.560Z,15.36
2017-10-11T05:30:49.703Z,15.29
2017-10-11T05:31:15.881Z,15.36
2017-10-11T05:31:42.035Z,15.27
2017-10-11T05:32:08.178Z,15.37
2017-10-11T05:32:34.343Z,15.24
2017-10-11T05:33:00.475Z,15.28
2017-10-11T05:33:26.615Z,15.31
2017-10-11T05:33:52.768Z,15.35
2017-10-11T05:34:18.903Z,15.29
2017-10-11T05:34:45.061Z,15.35
2017-10-11T05:35:11.210Z,15.36
2017-10-11T05:35:37.356Z,15.28
2017-10-11T05:36:03.493Z,15.28
2017-10-11T05:36:29.644Z,15.31
2017-10-11T05:36:55.787Z,15.24
2017-10-11T05:37:21.968Z,15.29
2017-10-11T05:37:48.122Z,15.31